createdAt,value
2018-06-02T00:01:26.621Z,16.50
2018-06-02T00:03:54.138Z,16.50
2018-06-02T00:06:21.682Z,16.50
2018-06-02T00:08:49.965Z,16.40
2018-06-02T00:11:18.280Z,16.40
2018-06-02T00:13:45.797Z,16.40
2018-06-02T00:16:14.096Z,16.40
2018-06-02T00:18:41.617Z,16.40
2018-06-02T00:21:09.153Z,16.40
2018-06-02T00:23:36.664Z,16.30
2018-06-02T00:26:04.973Z,16.30
2018-06-02T00:28:32.538Z,16.20
2018-06-02T00:31:00.054Z,16.20
2018-06-02T00:33:28.361Z,16.10
2018-06-02T00:35:55.878Z,16.00
2018-06-02T00:38:23.420Z,16.10
2018-06-02T00:40:50.956Z,16.10
2018-06-02T00:43:18.492Z,16.10
2018-06-02T00:45:46.771Z,16.10
2018-06-02T00:48:15.178Z,16.10
2018-06-02T00:50:42.700Z,16.10
2018-06-02T00:53:11.013Z,16.10
2018-06-02T00:55:38.582Z,16.10
2018-06-02T00:58:06.115Z,16.00
2018-06-02T01:00:34.404Z,16.00
2018-06-02T01:03:01.949Z,16.00
2018-06-02T01:05:30.250Z,15.90
2018-06-02T01:07:57.792Z,15.90
2018-06-02T01:10:26.078Z,15.90
2018-06-02T01:12:54.383Z,15.80
2018-06-02T01:15:21.900Z,15.80
2018-06-02T01:17:50.223Z,15.80
2018-06-02T01:20:17.740Z,15.80
2018-06-02T01:22:46.027Z,15.80
2018-06-02T01:25:14.337Z,15.70
2018-06-02T01:27:41.856Z,15.70
2018-06-02T01:30:09.402Z,15.70
2018-06-02T01:32:36.927Z,15.70
2018-06-02T01:35:04.465Z,15.70
2018-06-02T01:37:32.759Z,15.70
2018-06-02T01:40:00.337Z,15.70
2018-06-02T01:42:27.858Z,15.70
2018-06-02T01:44:56.163Z,15.70
2018-06-02T01:47:23.688Z,15.70
2018-06-02T01:49:52.020Z,15.60
2018-06-02T01:52:19.581Z,15.60
2018-06-02T01:54:47.142Z,15.50
2018-06-02T01:57:14.660Z,15.40
2018-06-02T01:59:42.960Z,15.30
2018-06-02T02:02:10.540Z,15.30
2018-06-02T02:04:38.051Z,15.20
2018-06-02T02:07:05.589Z,15.20
2018-06-02T02:09:33.117Z,15.30
2018-06-02T02:12:00.658Z,15.30
2018-06-02T02:14:28.941Z,15.40
2018-06-02T02:16:56.529Z,15.40
2018-06-02T02:19:24.044Z,15.30
2018-06-02T02:21:52.364Z,15.00
2018-06-02T02:24:19.928Z,15.00
2018-06-02T02:26:47.469Z,15.00
2018-06-02T02:29:14.987Z,14.90
2018-06-02T02:31:42.616Z,14.90
2018-06-02T02:34:10.138Z,15.00
2018-06-02T02:36:38.441Z,15.10
2018-06-02T02:39:05.962Z,15.10
2018-06-02T02:41:33.497Z,15.20
2018-06-02T02:44:01.016Z,15.20
2018-06-02T02:46:28.568Z,15.20
2018-06-02T02:48:56.860Z,15.00
2018-06-02T02:51:24.410Z,15.00
2018-06-02T02:53:51.941Z,14.90
2018-06-02T02:56:19.480Z,14.80
2018-06-02T02:58:47.017Z,14.70
2018-06-02T03:01:14.536Z,14.80
2018-06-02T03:03:42.841Z,14.90
2018-06-02T03:06:10.391Z,14.80
2018-06-02T03:08:38.800Z,14.90
2018-06-02T03:11:06.361Z,14.90
2018-06-02T03:13:33.924Z,15.00
2018-06-02T03:16:01.449Z,15.00
2018-06-02T03:18:29.765Z,15.00
2018-06-02T03:20:57.280Z,15.10
2018-06-02T03:23:24.824Z,15.10
2018-06-02T03:25:52.356Z,15.10
2018-06-02T03:28:19.897Z,15.10
2018-06-02T03:30:48.450Z,15.10
2018-06-02T03:33:16.764Z,15.10
2018-06-02T03:35:44.304Z,15.10
2018-06-02T03:38:12.608Z,15.20
2018-06-02T03:40:40.176Z,15.20
2018-06-02T03:43:07.734Z,15.30
2018-06-02T03:45:35.253Z,15.30
2018-06-02T03:48:03.538Z,15.40
2018-06-02T03:50:31.855Z,15.50
2018-06-02T03:52:59.372Z,15.50
2018-06-02T03:55:28.299Z,15.50
2018-06-02T03:57:55.817Z,15.50
2018-06-02T04:00:23.376Z,15.60
2018-06-02T04:02:50.897Z,15.60
2018-06-02T04:05:18.441Z,15.60
2018-06-02T04:07:45.960Z,15.70
2018-06-02T04:10:13.504Z,15.70
2018-06-02T04:12:41.025Z,15.70
2018-06-02T04:15:08.573Z,15.80
2018-06-02T04:17:36.857Z,16.20
2018-06-02T04:20:04.405Z,16.20
2018-06-02T04:22:32.701Z,16.50
2018-06-02T04:25:00.244Z,16.50
2018-06-02T04:27:28.544Z,17.00
2018-06-02T04:29:56.095Z,16.90
2018-06-02T04:32:24.379Z,17.40
2018-06-02T04:34:52.666Z,17.30
2018-06-02T04:37:20.203Z,17.30
2018-06-02T04:39:48.486Z,17.40
2018-06-02T04:42:16.806Z,17.40
2018-06-02T04:44:44.331Z,17.30
2018-06-02T04:47:12.637Z,17.90
2018-06-02T04:49:40.157Z,17.90
2018-06-02T04:52:07.695Z,18.40
2018-06-02T04:54:35.218Z,19.00
2018-06-02T04:57:02.755Z,19.50
2018-06-02T04:59:31.042Z,20.70
2018-06-02T05:01:58.577Z,20.70
2018-06-02T05:04:26.151Z,21.30
2018-06-02T05:06:53.669Z,21.90
2018-06-02T05:09:21.193Z,22.50
2018-06-02T05:11:48.768Z,23.10
2018-06-02T05:14:16.309Z,23.80
2018-06-02T05:16:43.829Z,24.30
2018-06-02T05:19:11.359Z,25.00
2018-06-02T05:21:39.650Z,26.00
2018-06-02T05:24:07.184Z,26.50
2018-06-02T05:26:34.705Z,26.90
2018-06-02T05:29:02.254Z,27.50
2018-06-02T05:31:29.781Z,28.00
2018-06-02T05:33:57.322Z,28.40
2018-06-02T05:36:24.847Z,27.60
2018-06-02T05:38:52.385Z,26.30
2018-06-02T05:41:19.912Z,25.10
2018-06-02T05:43:47.488Z,24.60
2018-06-02T05:46:15.013Z,24.30
2018-06-02T05:48:43.315Z,25.00
2018-06-02T05:51:10.838Z,24.90
2018-06-02T05:53:39.141Z,26.40
2018-06-02T05:56:06.661Z,26.30
2018-06-02T05:58:34.209Z,26.80
2018-06-02T06:01:01.729Z,26.10
2018-06-02T06:03:29.303Z,24.80
2018-06-02T06:05:56.844Z,23.30
2018-06-02T06:08:24.908Z,22.30
2018-06-02T06:10:53.224Z,21.30
2018-06-02T06:13:20.746Z,21.30
2018-06-02T06:15:49.164Z,20.80
2018-06-02T06:18:16.689Z,20.80
2018-06-02T06:20:45.004Z,20.30
2018-06-02T06:23:12.568Z,20.20
2018-06-02T06:25:40.105Z,20.00
2018-06-02T06:28:07.634Z,19.80
2018-06-02T06:30:37.432Z,19.60
2018-06-02T06:33:05.008Z,19.30
2018-06-02T06:35:32.530Z,19.30
2018-06-02T06:38:00.064Z,19.50
2018-06-02T06:40:27.601Z,19.70
2018-06-02T06:42:55.892Z,19.60
2018-06-02T06:45:24.207Z,19.40
2018-06-02T06:47:51.727Z,19.40
2018-06-02T06:50:20.017Z,19.30
2018-06-02T06:52:47.553Z,19.30
2018-06-02T06:55:16.201Z,19.60
2018-06-02T06:57:43.790Z,19.50
2018-06-02T07:00:11.289Z,19.60
2018-06-02T07:02:38.873Z,19.80
2018-06-02T07:05:06.402Z,19.90
2018-06-02T07:07:33.953Z,20.00
2018-06-02T07:10:02.245Z,20.30
2018-06-02T07:12:29.794Z,20.20
2018-06-02T07:14:58.088Z,20.50
2018-06-02T07:17:25.628Z,20.50
2018-06-02T07:19:53.917Z,22.10
2018-06-02T07:22:21.465Z,22.00
2018-06-02T07:24:49.808Z,23.10
2018-06-02T07:27:17.324Z,23.10
2018-06-02T07:29:44.848Z,23.30
2018-06-02T07:32:12.387Z,23.90
2018-06-02T07:34:39.912Z,24.60
2018-06-02T07:37:07.461Z,24.70
2018-06-02T07:39:34.988Z,24.80
2018-06-02T07:42:02.534Z,24.60
2018-06-02T07:44:30.080Z,24.50
2018-06-02T07:46:57.876Z,24.40
2018-06-02T07:49:26.538Z,24.70
2018-06-02T07:51:54.088Z,24.70
2018-06-02T07:54:21.641Z,24.50
2018-06-02T07:56:49.156Z,24.20
2018-06-02T07:59:16.693Z,23.50
2018-06-02T08:01:44.217Z,23.80
2018-06-02T08:04:11.785Z,24.40
2018-06-02T08:06:39.310Z,24.40
2018-06-02T08:09:07.625Z,24.20
2018-06-02T08:11:35.148Z,24.20
2018-06-02T08:14:03.456Z,25.70
2018-06-02T08:16:31.975Z,25.70
2018-06-02T08:18:59.517Z,26.30
2018-06-02T08:21:27.036Z,26.70
2018-06-02T08:23:55.360Z,26.00
2018-06-02T08:26:22.886Z,25.90
2018-06-02T08:28:50.409Z,25.80
2018-06-02T08:31:17.955Z,26.20
2018-06-02T08:33:45.474Z,26.20
2018-06-02T08:36:13.011Z,26.10
2018-06-02T08:38:41.299Z,27.20
2018-06-02T08:41:09.604Z,27.20
2018-06-02T08:43:37.128Z,27.20
2018-06-02T08:46:05.451Z,27.30
2018-06-02T08:48:32.979Z,27.30
2018-06-02T08:51:01.287Z,26.80
2018-06-02T08:53:28.812Z,26.80
2018-06-02T08:55:57.118Z,26.30
2018-06-02T08:58:24.636Z,26.30
2018-06-02T09:00:52.173Z,25.70
2018-06-02T09:03:19.695Z,25.20
2018-06-02T09:05:48.437Z,24.80
2018-06-02T09:08:15.960Z,24.70
2018-06-02T09:10:43.502Z,25.00
2018-06-02T09:13:11.021Z,25.40
2018-06-02T09:15:38.612Z,25.70
2018-06-02T09:18:06.098Z,25.70
2018-06-02T09:20:33.661Z,25.40
2018-06-02T09:23:01.176Z,25.20
2018-06-02T09:25:28.693Z,24.80
2018-06-02T09:27:56.294Z,24.40
2018-06-02T09:30:23.779Z,24.20
2018-06-02T09:32:52.080Z,24.60
2018-06-02T09:35:19.607Z,24.60
2018-06-02T09:37:47.155Z,25.70
2018-06-02T09:40:15.442Z,26.50
2018-06-02T09:42:43.744Z,26.20
2018-06-02T09:45:11.263Z,26.10
2018-06-02T09:47:39.649Z,25.30
2018-06-02T09:50:07.142Z,25.20
2018-06-02T09:52:34.689Z,25.10
2018-06-02T09:55:03.016Z,26.20
2018-06-02T09:57:30.553Z,26.10
2018-06-02T09:59:58.069Z,26.40
2018-06-02T10:02:27.130Z,26.20
2018-06-02T10:04:54.686Z,26.20
2018-06-02T10:07:22.229Z,26.10
2018-06-02T10:09:49.748Z,25.90
2018-06-02T10:12:17.361Z,25.40
2018-06-02T10:14:44.932Z,25.20
2018-06-02T10:17:12.501Z,24.90
2018-06-02T10:19:40.026Z,25.10
2018-06-02T10:22:07.561Z,25.10
2018-06-02T10:24:35.852Z,25.60
2018-06-02T10:27:04.159Z,25.40
2018-06-02T10:29:31.771Z,25.40
2018-06-02T10:31:59.306Z,25.10
2018-06-02T10:34:26.829Z,25.00
2018-06-02T10:36:54.354Z,25.10
2018-06-02T10:39:21.891Z,25.30
2018-06-02T10:41:49.416Z,25.30
2018-06-02T10:44:17.024Z,25.40
2018-06-02T10:46:44.654Z,25.20
2018-06-02T10:49:13.130Z,25.20
2018-06-02T10:51:40.651Z,25.20
2018-06-02T10:54:08.188Z,25.20
2018-06-02T10:56:35.708Z,25.20
2018-06-02T10:59:03.252Z,25.40
2018-06-02T11:01:31.579Z,25.10
2018-06-02T11:03:59.117Z,25.10
2018-06-02T11:06:26.638Z,24.70
2018-06-02T11:08:54.240Z,24.40
2018-06-02T11:11:21.761Z,24.20
2018-06-02T11:13:50.065Z,23.90
2018-06-02T11:16:17.653Z,23.90
2018-06-02T11:18:45.200Z,24.10
2018-06-02T11:21:12.776Z,24.50
2018-06-02T11:23:40.427Z,25.10
2018-06-02T11:26:07.949Z,26.20
2018-06-02T11:28:36.252Z,26.90
2018-06-02T11:31:03.767Z,26.80
2018-06-02T11:33:31.312Z,26.20
2018-06-02T11:35:58.832Z,25.50
2018-06-02T11:38:26.413Z,24.70
2018-06-02T11:40:53.948Z,24.10
2018-06-02T11:43:22.236Z,23.70
2018-06-02T11:45:49.779Z,23.60
2018-06-02T11:48:18.070Z,23.80
2018-06-02T11:50:46.373Z,24.50
2018-06-02T11:53:13.892Z,24.50
2018-06-02T11:55:42.200Z,25.80
2018-06-02T11:58:09.717Z,25.80
2018-06-02T12:00:37.257Z,26.30
2018-06-02T12:03:08.209Z,26.70
2018-06-02T12:05:35.745Z,27.20
2018-06-02T12:08:03.274Z,27.90
2018-06-02T12:10:30.813Z,28.10
2018-06-02T12:12:58.333Z,28.60
2018-06-02T12:15:25.871Z,29.10
2018-06-02T12:17:53.397Z,29.20
2018-06-02T12:20:21.716Z,29.70
2018-06-02T12:22:49.239Z,29.70
2018-06-02T12:25:17.541Z,28.70
2018-06-02T12:27:45.064Z,28.70
2018-06-02T12:30:12.613Z,28.10
2018-06-02T12:32:40.129Z,28.20
2018-06-02T12:35:07.654Z,28.60
2018-06-02T12:37:35.961Z,29.80
2018-06-02T12:40:03.536Z,29.70
2018-06-02T12:42:31.072Z,29.10
2018-06-02T12:44:59.352Z,27.70
2018-06-02T12:47:26.896Z,27.70
2018-06-02T12:49:55.184Z,28.50
2018-06-02T12:52:23.489Z,29.20
2018-06-02T12:54:51.007Z,29.20
2018-06-02T12:57:18.544Z,29.40
2018-06-02T12:59:46.065Z,28.70
2018-06-02T13:02:13.638Z,27.80
2018-06-02T13:04:41.200Z,27.10
2018-06-02T13:07:08.741Z,26.60
2018-06-02T13:09:36.311Z,26.50
2018-06-02T13:12:04.614Z,26.50
2018-06-02T13:14:32.173Z,26.50
2018-06-02T13:16:59.667Z,26.40
2018-06-02T13:19:27.976Z,26.10
2018-06-02T13:21:55.503Z,26.10
2018-06-02T13:24:23.808Z,25.90
2018-06-02T13:26:52.089Z,26.50
2018-06-02T13:29:20.394Z,27.30
2018-06-02T13:31:47.913Z,27.30
2018-06-02T13:34:16.215Z,28.50
2018-06-02T13:36:43.736Z,28.50
2018-06-02T13:39:11.298Z,29.00
2018-06-02T13:41:39.632Z,28.50
2018-06-02T13:44:07.173Z,28.50
2018-06-02T13:46:34.692Z,28.10
2018-06-02T13:49:02.230Z,28.10
2018-06-02T13:51:29.807Z,28.00
2018-06-02T13:53:57.326Z,27.80
2018-06-02T13:56:24.853Z,27.70
2018-06-02T13:58:52.370Z,27.10
2018-06-02T14:01:19.907Z,26.70
2018-06-02T14:03:48.041Z,26.50
2018-06-02T14:06:16.353Z,26.50
2018-06-02T14:08:43.873Z,26.40
2018-06-02T14:11:11.409Z,26.90
2018-06-02T14:13:38.928Z,27.20
2018-06-02T14:16:07.339Z,27.30
2018-06-02T14:18:34.905Z,27.30
2018-06-02T14:21:02.412Z,27.30
2018-06-02T14:23:29.934Z,27.20
2018-06-02T14:25:57.467Z,27.30
2018-06-02T14:28:24.991Z,27.40
2018-06-02T14:30:52.559Z,27.60
2018-06-02T14:33:20.064Z,27.70
2018-06-02T14:35:47.611Z,27.50
2018-06-02T14:38:15.132Z,27.30
2018-06-02T14:40:42.686Z,27.20
2018-06-02T14:43:10.214Z,27.10
2018-06-02T14:45:37.735Z,27.00
2018-06-02T14:48:06.038Z,26.70
2018-06-02T14:50:33.561Z,26.60
2018-06-02T14:53:01.865Z,26.50
2018-06-02T14:55:29.393Z,26.50
2018-06-02T14:57:57.700Z,26.70
2018-06-02T15:00:25.737Z,26.70
2018-06-02T15:02:53.282Z,26.70
2018-06-02T15:05:20.799Z,26.40
2018-06-02T15:07:48.383Z,25.80
2018-06-02T15:10:15.936Z,25.70
2018-06-02T15:12:43.506Z,25.80
2018-06-02T15:15:11.024Z,26.20
2018-06-02T15:17:39.324Z,26.70
2018-06-02T15:20:06.839Z,26.70
2018-06-02T15:22:34.378Z,26.70
2018-06-02T15:25:01.955Z,26.80
2018-06-02T15:27:29.460Z,26.60
2018-06-02T15:29:57.744Z,26.50
2018-06-02T15:32:25.260Z,26.50
2018-06-02T15:34:52.793Z,26.50
2018-06-02T15:37:20.314Z,26.30
2018-06-02T15:39:48.612Z,25.90
2018-06-02T15:42:16.163Z,25.90
2018-06-02T15:44:44.468Z,25.90
2018-06-02T15:47:11.985Z,25.90
2018-06-02T15:49:40.284Z,26.10
2018-06-02T15:52:07.865Z,26.10
2018-06-02T15:54:35.429Z,25.80
2018-06-02T15:57:02.946Z,25.90
2018-06-02T15:59:31.249Z,25.70
2018-06-02T16:01:58.832Z,25.70
2018-06-02T16:04:26.372Z,25.60
2018-06-02T16:06:53.950Z,25.40
2018-06-02T16:09:21.487Z,25.40
2018-06-02T16:11:49.014Z,25.40
2018-06-02T16:14:16.553Z,25.40
2018-06-02T16:16:44.073Z,25.20
2018-06-02T16:19:15.189Z,25.20
2018-06-02T16:21:42.715Z,25.20
2018-06-02T16:24:10.257Z,25.20
2018-06-02T16:26:37.776Z,25.30
2018-06-02T16:29:06.101Z,25.30
2018-06-02T16:31:33.623Z,25.40
2018-06-02T16:34:01.943Z,25.20
2018-06-02T16:36:29.460Z,25.20
2018-06-02T16:38:57.748Z,25.20
2018-06-02T16:41:26.051Z,25.10
2018-06-02T16:43:53.564Z,25.10
2018-06-02T16:46:21.864Z,25.00
2018-06-02T16:48:50.144Z,25.00
2018-06-02T16:51:18.453Z,25.00
2018-06-02T16:53:45.967Z,24.90
2018-06-02T16:56:14.268Z,24.80
2018-06-02T16:58:41.792Z,24.80
2018-06-02T17:01:09.329Z,24.70
2018-06-02T17:03:36.849Z,24.60
2018-06-02T17:06:04.388Z,24.60
2018-06-02T17:08:32.690Z,24.60
2018-06-02T17:11:01.509Z,24.60
2018-06-02T17:13:29.073Z,24.50
2018-06-02T17:15:56.588Z,24.50
2018-06-02T17:18:24.867Z,24.60
2018-06-02T17:20:53.181Z,24.60
2018-06-02T17:23:20.707Z,24.60
2018-06-02T17:25:48.300Z,24.50
2018-06-02T17:28:15.850Z,24.50
2018-06-02T17:30:43.373Z,24.50
2018-06-02T17:33:10.909Z,24.50
2018-06-02T17:35:38.425Z,24.40
2018-06-02T17:38:05.963Z,24.40
2018-06-02T17:40:34.251Z,24.20
2018-06-02T17:43:02.556Z,24.20
2018-06-02T17:45:30.086Z,24.20
2018-06-02T17:47:58.392Z,24.10
2018-06-02T17:50:25.914Z,24.20
2018-06-02T17:52:53.454Z,24.10
2018-06-02T17:55:20.979Z,24.00
2018-06-02T17:57:48.517Z,24.00
2018-06-02T18:00:16.796Z,23.90
2018-06-02T18:02:45.112Z,23.90
2018-06-02T18:05:12.634Z,23.90
2018-06-02T18:07:41.043Z,23.70
2018-06-02T18:10:08.585Z,23.70
2018-06-02T18:12:36.104Z,23.70
2018-06-02T18:15:03.650Z,23.70
2018-06-02T18:17:31.164Z,23.60
2018-06-02T18:19:58.696Z,23.60
2018-06-02T18:22:26.981Z,23.50
2018-06-02T18:24:55.284Z,23.50
2018-06-02T18:27:22.851Z,23.50
2018-06-02T18:29:51.120Z,23.40
2018-06-02T18:32:18.649Z,23.40
2018-06-02T18:34:46.264Z,23.30
2018-06-02T18:37:13.786Z,23.30
2018-06-02T18:39:42.088Z,23.00
2018-06-02T18:42:09.605Z,23.00
2018-06-02T18:44:37.152Z,22.70
2018-06-02T18:47:04.670Z,22.30
2018-06-02T18:49:32.223Z,22.00
2018-06-02T18:51:59.805Z,21.70
2018-06-02T18:54:27.323Z,21.50
2018-06-02T18:56:54.856Z,21.40
2018-06-02T18:59:22.379Z,21.20
2018-06-02T19:01:49.929Z,21.10
2018-06-02T19:04:17.455Z,21.00
2018-06-02T19:06:44.989Z,20.80
2018-06-02T19:09:12.501Z,20.70
2018-06-02T19:11:40.802Z,20.20
2018-06-02T19:14:08.321Z,20.20
2018-06-02T19:16:35.856Z,20.10
2018-06-02T19:19:03.371Z,19.90
2018-06-02T19:21:30.907Z,19.80
2018-06-02T19:23:59.195Z,19.70
2018-06-02T19:26:27.530Z,19.80
2018-06-02T19:28:55.038Z,19.70
2018-06-02T19:31:23.346Z,19.70
2018-06-02T19:33:50.869Z,19.70
2018-06-02T19:36:19.172Z,19.70
2018-06-02T19:38:46.718Z,19.70
2018-06-02T19:41:15.000Z,19.70
2018-06-02T19:43:42.544Z,19.70
2018-06-02T19:46:10.824Z,19.60
2018-06-02T19:48:41.353Z,19.60
2018-06-02T19:51:09.632Z,19.30
2018-06-02T19:53:37.932Z,19.00
2018-06-02T19:56:05.448Z,19.00
2018-06-02T19:58:32.982Z,18.90
2018-06-02T20:01:00.502Z,18.80
2018-06-02T20:04:06.684Z,18.70
2018-06-02T20:06:35.110Z,18.70
2018-06-02T20:09:04.356Z,18.70
2018-06-02T20:11:33.477Z,18.60
2018-06-02T20:14:01.944Z,18.50
2018-06-02T20:16:30.401Z,18.40
2018-06-02T20:18:58.846Z,18.40
2018-06-02T20:21:27.280Z,18.30
2018-06-02T20:23:55.718Z,18.20
2018-06-02T20:26:24.173Z,18.10
2018-06-02T20:28:52.877Z,18.00
2018-06-02T20:31:21.325Z,17.90
2018-06-02T20:33:49.796Z,17.70
2018-06-02T20:36:18.213Z,17.60
2018-06-02T20:38:46.652Z,17.50
2018-06-02T20:41:15.079Z,17.50
2018-06-02T20:43:43.532Z,17.40
2018-06-02T20:46:11.952Z,17.40
2018-06-02T20:48:40.376Z,17.40
2018-06-02T20:51:08.832Z,17.50
2018-06-02T20:53:37.248Z,17.50
2018-06-02T20:56:05.741Z,17.50
2018-06-02T20:58:34.199Z,17.50
2018-06-02T21:01:02.644Z,17.30
2018-06-02T21:03:31.056Z,17.20
2018-06-02T21:05:59.505Z,17.20
2018-06-02T21:08:27.931Z,17.20
2018-06-02T21:10:56.376Z,17.10
2018-06-02T21:13:24.817Z,17.00
2018-06-02T21:15:53.264Z,17.00
2018-06-02T21:18:21.697Z,16.80
2018-06-02T21:20:53.095Z,16.80
2018-06-02T21:23:21.522Z,16.90
2018-06-02T21:25:49.972Z,17.00
2018-06-02T21:28:18.392Z,17.10
2018-06-02T21:30:46.832Z,17.10
2018-06-02T21:33:18.230Z,17.20
2018-06-02T21:35:46.695Z,17.20
2018-06-02T21:38:15.121Z,17.00
2018-06-02T21:40:43.554Z,16.90
2018-06-02T21:43:12.010Z,16.90
2018-06-02T21:48:08.589Z,16.90
2018-06-02T21:50:37.001Z,16.90
2018-06-02T21:53:05.504Z,16.80
2018-06-02T21:55:33.932Z,16.70
2018-06-02T21:58:02.403Z,16.50
2018-06-02T22:00:30.909Z,16.50
2018-06-02T22:02:59.353Z,16.50
2018-06-02T22:05:27.829Z,16.50
2018-06-02T22:07:56.269Z,16.50
2018-06-02T22:10:24.689Z,16.50
2018-06-02T22:12:53.129Z,16.60
2018-06-02T22:15:21.648Z,16.60
2018-06-02T22:17:50.759Z,16.60
2018-06-02T22:20:19.193Z,16.60
2018-06-02T22:22:47.624Z,16.50
2018-06-02T22:25:16.056Z,16.40
2018-06-02T22:27:44.516Z,16.40
2018-06-02T22:30:12.962Z,16.40
2018-06-02T22:32:41.379Z,16.50
2018-06-02T22:35:09.856Z,16.50
2018-06-02T22:37:38.281Z,16.60
2018-06-02T22:40:06.759Z,16.60
2018-06-02T22:42:35.180Z,16.60
2018-06-02T22:47:31.786Z,16.50
2018-06-02T22:50:00.259Z,16.50
2018-06-02T22:52:28.783Z,16.30
2018-06-02T22:54:57.308Z,16.20
2018-06-02T22:57:25.828Z,16.10
2018-06-02T22:59:54.406Z,16.00
2018-06-02T23:02:22.912Z,15.90
2018-06-02T23:04:51.982Z,15.80
2018-06-02T23:07:21.141Z,15.70
2018-06-02T23:09:49.634Z,15.60
2018-06-02T23:12:18.067Z,15.50
2018-06-02T23:14:46.492Z,15.60
2018-06-02T23:17:14.944Z,15.60
2018-06-02T23:19:43.369Z,15.70
2018-06-02T23:22:23.765Z,15.70
2018-06-02T23:24:52.196Z,15.70
2018-06-02T23:27:20.625Z,15.80
2018-06-02T23:29:49.036Z,15.80
2018-06-02T23:32:17.480Z,15.80
2018-06-02T23:34:45.900Z,15.80
2018-06-02T23:37:14.402Z,15.80
2018-06-02T23:39:42.817Z,15.70
2018-06-02T23:42:11.258Z,15.50
2018-06-02T23:44:39.683Z,15.40
2018-06-02T23:47:08.140Z,15.30
2018-06-02T23:49:36.569Z,15.20
2018-06-02T23:52:05.033Z,15.20
2018-06-02T23:54:33.449Z,15.20
2018-06-02T23:57:01.906Z,15.20
2018-06-02T23:59:30.354Z,15.20
